Time;durP1;ratioP1;P1;durP2;ratioP2;P2;SDS_P1;SDS_P2;PMS_P1;PMS_P2;Temp;Humidity;BMP_temperature;BMP_pressure;BME280_temperature;BME280_humidity;BME280_pressure;Samples;Min_cycle;Max_cycle;Signal;HPM_P1;HPM_P2
2022/01/21 00:01:18;;;;;;;;;10.25;8.50;;;;;6.61;61.09;103498.28;5062588;28;45350;-85
2022/01/21 00:03:44;;;;;;;;;8.50;5.50;;;;;6.60;61.13;103491.25;5057563;28;45528;-86
2022/01/21 00:06:10;;;;;;;;;9.75;6.00;;;;;6.61;60.77;103488.72;5062287;28;45413;-86
2022/01/21 00:08:38;;;;;;;;;11.00;7.25;;;;;6.60;60.99;103483.41;5061933;28;45446;-85
2022/01/21 00:11:04;;;;;;;;;7.25;5.00;;;;;6.61;61.23;103490.44;5061973;28;45385;-86
2022/01/21 00:13:36;;;;;;;;;9.50;8.00;;;;;6.63;60.66;103478.28;5057552;28;45239;-86
2022/01/21 00:16:08;;;;;;;;;6.75;6.00;;;;;6.60;60.63;103475.59;5062203;28;45550;-85
2022/01/21 00:18:35;;;;;;;;;9.75;6.50;;;;;6.58;60.55;103483.41;5058608;28;45981;-88
2022/01/21 00:31:59;;;;;;;;;8.50;7.25;;;;;6.43;60.94;103462.94;5059588;28;45534;-84
2022/01/21 00:34:25;;;;;;;;;11.50;10.00;;;;;6.45;61.46;103476.91;5061965;28;45521;-86
2022/01/21 00:36:51;;;;;;;;;9.75;8.50;;;;;6.37;61.53;103463.63;5051888;28;45355;-83
2022/01/21 00:39:21;;;;;;;;;11.25;10.25;;;;;6.38;61.40;103460.19;5061850;28;45505;-83
2022/01/21 00:41:57;;;;;;;;;12.50;12.25;;;;;6.38;61.47;103468.03;5061231;28;45275;-83
2022/01/21 00:44:23;;;;;;;;;14.25;10.75;;;;;6.37;61.09;103475.84;5061732;28;45315;-85
2022/01/21 00:46:49;;;;;;;;;13.75;8.75;;;;;6.36;61.54;103471.44;5061359;28;46428;-83
2022/01/21 00:49:15;;;;;;;;;12.75;9.75;;;;;6.36;61.67;103453.16;5061490;28;45324;-83
2022/01/21 00:51:41;;;;;;;;;10.50;9.75;;;;;6.36;61.41;103459.25;5061674;28;45336;-82
2022/01/21 00:54:06;;;;;;;;;11.75;9.00;;;;;6.39;61.45;103466.31;5061516;28;45723;-82
2022/01/21 00:56:32;;;;;;;;;12.50;10.50;;;;;6.37;61.52;103455.78;5058768;28;46371;-84
2022/01/21 00:58:57;;;;;;;;;8.50;6.50;;;;;6.41;61.84;103460.28;5061532;28;45406;-84
2022/01/21 01:01:22;;;;;;;;;11.50;10.00;;;;;6.39;61.61;103456.75;5061298;28;45756;-84
2022/01/21 01:03:48;;;;;;;;;13.00;9.00;;;;;6.39;61.47;103463.69;5047685;28;45342;-84
2022/01/21 01:06:13;;;;;;;;;8.50;7.75;;;;;6.39;61.83;103461.97;5060079;28;45358;-86
2022/01/21 01:08:39;;;;;;;;;13.50;9.25;;;;;6.36;61.80;103459.25;5050370;28;45150;-83
2022/01/21 01:21:45;;;;;;;;;15.25;9.75;;;;;6.29;61.70;103460.81;5059251;28;45469;-85
2022/01/21 01:29:25;;;;;;;;;7.00;6.00;;;;;6.22;62.33;103464.09;5052922;28;45225;-86
2022/01/21 01:31:51;;;;;;;;;10.50;8.25;;;;;6.21;62.00;103459.69;5060418;28;45521;-86
2022/01/21 01:34:18;;;;;;;;;15.75;9.75;;;;;6.19;61.66;103457.06;5060537;28;45302;-85
2022/01/21 01:36:47;;;;;;;;;8.25;8.25;;;;;6.15;61.56;103459.53;5054236;28;45268;-85
2022/01/21 01:39:29;;;;;;;;;9.25;8.00;;;;;6.16;61.87;103462.19;5052824;28;45489;-85
2022/01/21 01:42:14;;;;;;;;;9.75;8.25;;;;;6.14;62.34;103455.13;5059316;28;45320;-87
2022/01/21 01:50:35;;;;;;;;;6.25;6.25;;;;;6.07;62.24;103457.53;5059480;28;46009;-87
2022/01/21 01:53:01;;;;;;;;;10.50;9.50;;;;;6.07;62.65;103469.75;5058176;28;45433;-87
2022/01/21 01:55:26;;;;;;;;;12.50;11.00;;;;;6.01;62.92;103467.78;5060768;28;45271;-87
2022/01/21 01:57:53;;;;;;;;;16.50;9.00;;;;;6.06;62.35;103463.59;5059663;28;46698;-87
2022/01/21 02:00:18;;;;;;;;;9.25;8.25;;;;;6.08;62.50;103472.38;5058679;28;45241;-87
2022/01/21 02:02:44;;;;;;;;;9.25;9.25;;;;;6.09;62.30;103473.28;5059037;28;45445;-86
2022/01/21 02:05:09;;;;;;;;;10.25;7.50;;;;;6.07;62.58;103472.34;5060413;28;45256;-86
2022/01/21 02:07:35;;;;;;;;;16.00;10.25;;;;;6.10;62.27;103479.41;5059068;28;48061;-84
2022/01/21 02:10:00;;;;;;;;;12.00;9.75;;;;;6.04;62.42;103478.34;5059896;28;45495;-81
2022/01/21 02:12:25;;;;;;;;;9.00;8.25;;;;;6.03;62.39;103468.72;5059650;28;45449;-85
2022/01/21 02:14:53;;;;;;;;;9.25;7.75;;;;;6.02;62.59;103473.91;5060476;28;45271;-87
2022/01/21 02:22:38;;;;;;;;;4.50;4.50;;;;;5.94;62.42;103478.88;5060068;28;45306;-86
2022/01/21 02:25:19;;;;;;;;;8.25;6.50;;;;;5.91;62.72;103476.16;5060216;28;45252;-85
2022/01/21 02:27:55;;;;;;;;;9.00;7.00;;;;;5.85;62.65;103482.09;5059916;28;46490;-86
2022/01/21 02:30:23;;;;;;;;;8.50;8.00;;;;;5.89;62.78;103472.63;5059377;28;45246;-87
2022/01/21 02:32:57;;;;;;;;;9.75;8.00;;;;;5.91;62.86;103473.56;5051147;28;45407;-88
2022/01/21 02:35:24;;;;;;;;;15.75;8.50;;;;;5.91;63.12;103470.94;5060070;28;45616;-87
2022/01/21 02:37:51;;;;;;;;;6.25;6.25;;;;;5.88;63.00;103479.56;5059810;28;45441;-88
2022/01/21 02:40:18;;;;;;;;;8.75;8.50;;;;;5.88;62.90;103473.47;5058432;28;45783;-88
2022/01/21 02:42:43;;;;;;;;;5.00;4.00;;;;;5.87;63.04;103467.38;5059732;28;45448;-87
2022/01/21 02:45:10;;;;;;;;;11.50;8.75;;;;;5.83;63.28;103470.69;5058368;28;46046;-86
2022/01/21 02:47:36;;;;;;;;;11.00;9.25;;;;;5.83;63.17;103471.59;5059549;28;45274;-86
2022/01/21 02:50:03;;;;;;;;;9.25;7.00;;;;;5.82;62.76;103472.44;5059708;28;45223;-87
2022/01/21 02:52:30;;;;;;;;;13.25;9.75;;;;;5.84;63.02;103470.78;5056054;28;45465;-88
2022/01/21 02:54:56;;;;;;;;;10.50;8.00;;;;;5.81;63.06;103470.66;5046883;28;45418;-87
2022/01/21 02:57:22;;;;;;;;;10.25;5.75;;;;;5.82;63.18;103475.06;5059614;28;46256;-87
2022/01/21 02:59:49;;;;;;;;;6.25;6.25;;;;;5.84;63.06;103470.78;5057525;28;45769;-85
2022/01/21 03:02:15;;;;;;;;;11.25;7.00;;;;;5.78;62.99;103467.94;5059609;28;45315;-85
2022/01/21 03:05:02;;;;;;;;;10.00;8.25;;;;;5.78;63.27;103467.94;5058012;28;45330;-85
2022/01/21 03:07:28;;;;;;;;;13.00;10.75;;;;;5.81;63.30;103462.84;5058229;28;47579;-89
2022/01/21 03:09:53;;;;;;;;;18.25;11.75;;;;;5.81;63.05;103468.06;5058207;28;45429;-87
2022/01/21 03:12:21;;;;;;;;;10.00;6.25;;;;;5.81;63.33;103468.06;5057269;28;45293;-88
2022/01/21 03:14:47;;;;;;;;;9.75;7.75;;;;;5.83;62.73;103475.94;5059442;28;45401;-88
2022/01/21 03:17:12;;;;;;;;;12.00;7.75;;;;;5.82;63.37;103479.38;5059027;28;46408;-86
2022/01/21 03:19:37;;;;;;;;;11.25;9.00;;;;;5.83;63.09;103484.66;5058173;28;45525;-86
2022/01/21 03:22:04;;;;;;;;;11.50;9.00;;;;;5.81;62.79;103475.88;5058896;28;45371;-86
2022/01/21 03:24:30;;;;;;;;;9.75;8.00;;;;;5.77;63.34;103479.25;5059195;28;45236;-85
2022/01/21 03:26:55;;;;;;;;;9.75;8.75;;;;;5.74;63.44;103486.97;5057927;28;46908;-86
2022/01/21 03:29:20;;;;;;;;;10.50;9.25;;;;;5.70;63.39;103485.13;5058522;28;45724;-87
2022/01/21 03:31:46;;;;;;;;;11.00;6.50;;;;;5.71;63.13;103481.66;5062802;28;45279;-86
2022/01/21 03:34:11;;;;;;;;;16.75;10.25;;;;;5.69;63.39;103485.94;5062322;28;45527;-86
2022/01/21 03:36:38;;;;;;;;;14.50;11.00;;;;;5.65;63.02;103478.84;5054052;28;46329;-86
2022/01/21 03:39:04;;;;;;;;;10.25;9.50;;;;;5.63;63.57;103484.91;5062592;28;45373;-82
2022/01/21 03:41:29;;;;;;;;;12.25;10.00;;;;;5.60;63.57;103484.81;5063008;28;45366;-86
2022/01/21 03:43:55;;;;;;;;;10.50;10.25;;;;;5.61;63.75;103481.34;5062246;28;45425;-84
2022/01/21 03:46:21;;;;;;;;;15.25;8.00;;;;;5.60;63.39;103486.53;5060444;28;45604;-84
2022/01/21 03:48:49;;;;;;;;;14.25;11.00;;;;;5.61;63.43;103496.13;5062400;28;45420;-82
2022/01/21 03:51:16;;;;;;;;;11.00;9.75;;;;;5.65;63.91;103499.72;5062524;28;45397;-85
2022/01/21 03:53:41;;;;;;;;;12.00;9.50;;;;;5.68;63.56;103507.66;5062603;28;45485;-84
2022/01/21 03:56:07;;;;;;;;;11.75;9.75;;;;;5.68;63.62;103508.53;5062402;28;46108;-82
2022/01/21 03:58:32;;;;;;;;;9.50;8.50;;;;;5.69;63.54;103498.97;5062070;28;45472;-83
2022/01/21 04:00:57;;;;;;;;;10.25;7.00;;;;;5.72;63.51;103509.53;5062814;28;45215;-85
2022/01/21 04:03:24;;;;;;;;;8.75;6.00;;;;;5.72;63.47;103502.59;5060781;28;45571;-86
2022/01/21 04:05:50;;;;;;;;;10.75;10.25;;;;;5.67;63.40;103490.22;5062435;28;45264;-85
2022/01/21 04:08:15;;;;;;;;;12.25;9.00;;;;;5.67;63.63;103505.88;5062246;28;45318;-85
2022/01/21 04:10:42;;;;;;;;;11.75;8.25;;;;;5.70;63.66;103508.59;5061536;28;45429;-87
2022/01/21 04:13:15;;;;;;;;;11.00;9.50;;;;;5.70;63.77;103503.38;5060868;28;45921;-81
2022/01/21 04:15:47;;;;;;;;;9.50;6.00;;;;;5.74;63.47;103495.69;5061680;28;45385;-85
2022/01/21 04:18:13;;;;;;;;;15.50;10.50;;;;;5.79;63.55;103490.63;5062076;28;45334;-84
2022/01/21 04:20:40;;;;;;;;;10.00;9.50;;;;;5.84;63.49;103503.81;5061947;28;45572;-86
2022/01/21 04:23:05;;;;;;;;;11.00;8.50;;;;;5.77;63.53;103502.75;5061800;28;45398;-86
2022/01/21 04:25:31;;;;;;;;;9.75;8.50;;;;;5.74;63.34;103516.56;5061805;28;45476;-87
2022/01/21 04:27:57;;;;;;;;;10.75;8.50;;;;;5.75;63.47;103504.41;5061751;28;45354;-85
2022/01/21 04:30:23;;;;;;;;;8.75;6.50;;;;;5.76;63.75;103513.09;5062190;28;45397;-86
2022/01/21 04:32:48;;;;;;;;;12.00;9.00;;;;;5.81;63.58;103508.94;5055099;28;45451;-85
2022/01/21 04:35:13;;;;;;;;;8.00;2.50;;;;;5.82;63.46;103510.72;5061618;28;45317;-84
2022/01/21 04:37:46;;;;;;;;;9.75;8.25;;;;;5.83;63.28;103513.38;5060575;28;45185;-84
2022/01/21 04:40:15;;;;;;;;;11.25;9.50;;;;;5.85;63.84;103514.28;5060144;28;45461;-84
2022/01/21 04:48:08;;;;;;;;;8.25;6.50;;;;;5.86;63.44;103515.19;5061060;28;45892;-86
2022/01/21 04:50:52;;;;;;;;;9.25;8.00;;;;;5.84;63.55;103515.16;5061736;28;45275;-86
2022/01/21 04:53:18;;;;;;;;;11.25;9.75;;;;;5.87;63.42;103513.47;5060595;28;46141;-86
2022/01/21 04:55:43;;;;;;;;;4.75;4.75;;;;;5.84;63.46;103509.94;5061626;28;45409;-86
2022/01/21 04:58:08;;;;;;;;;10.50;8.75;;;;;5.82;63.13;103509.00;5060809;28;45516;-85
2022/01/21 05:00:34;;;;;;;;;10.00;6.25;;;;;5.87;63.06;103521.31;5061434;28;45897;-86
2022/01/21 05:03:00;;;;;;;;;10.00;9.25;;;;;5.87;63.55;103518.69;5061175;28;45185;-85
2022/01/21 05:05:25;;;;;;;;;9.25;9.00;;;;;5.90;63.84;103524.88;5061201;28;46056;-85
2022/01/21 05:07:51;;;;;;;;;9.75;9.75;;;;;5.90;63.60;103521.41;5061586;28;45298;-83
2022/01/21 05:10:17;;;;;;;;;6.50;6.25;;;;;5.93;63.20;103513.66;5061067;28;45246;-84
2022/01/21 05:12:42;;;;;;;;;10.00;7.75;;;;;5.94;63.65;103520.66;5059671;28;45822;-86
2022/01/21 05:15:17;;;;;;;;;11.25;10.50;;;;;5.97;63.60;103518.16;5061036;28;46439;-87
2022/01/21 05:17:48;;;;;;;;;11.00;8.50;;;;;6.00;63.31;103520.84;5076364;28;45776;-87
2022/01/21 05:20:14;;;;;;;;;11.75;8.50;;;;;6.01;62.90;103519.13;5059884;28;45523;-87
2022/01/21 05:22:40;;;;;;;;;10.25;9.00;;;;;6.03;62.87;103523.56;5060088;28;45169;-87
2022/01/21 05:25:06;;;;;;;;;8.00;8.00;;;;;6.05;63.03;103528.84;5061056;28;45216;-87
2022/01/21 05:27:31;;;;;;;;;5.75;5.25;;;;;6.03;62.95;103518.31;5061101;28;45262;-86
2022/01/21 05:29:57;;;;;;;;;8.00;6.25;;;;;6.03;62.97;103513.09;5059689;28;45287;-88
2022/01/21 05:32:22;;;;;;;;;11.00;8.00;;;;;6.05;62.94;103519.25;5059105;28;46285;-88
2022/01/21 05:34:47;;;;;;;;;11.00;6.50;;;;;6.06;63.11;103523.66;5059488;28;47852;-87
2022/01/21 05:37:13;;;;;;;;;11.25;9.50;;;;;6.06;62.74;103515.81;5049994;28;45298;-87
2022/01/21 05:39:38;;;;;;;;;8.50;8.50;;;;;6.06;62.74;103526.25;5057693;28;45256;-85
2022/01/21 05:42:06;;;;;;;;;11.00;7.75;;;;;6.03;62.93;103530.50;5059308;28;46019;-89
2022/01/21 05:46:59;;;;;;;;;12.50;7.25;;;;;6.05;62.77;103547.97;5060300;28;45318;-89
2022/01/21 05:49:27;;;;;;;;;12.75;9.00;;;;;6.00;62.81;103531.28;5059484;28;45433;-87
2022/01/21 05:52:01;;;;;;;;;11.50;9.00;;;;;6.05;62.67;103540.16;5059993;28;45528;-92
2022/01/21 05:54:27;;;;;;;;;9.00;9.00;;;;;6.03;62.65;103535.72;5061007;28;46332;-93
2022/01/21 05:56:52;;;;;;;;;9.75;9.00;;;;;6.02;63.04;103541.78;5059426;28;45169;-87
2022/01/21 05:59:18;;;;;;;;;12.00;8.50;;;;;6.00;62.73;103541.72;5059641;28;45215;-88
2022/01/21 06:01:44;;;;;;;;;10.25;8.00;;;;;6.02;62.95;103545.28;5060570;28;45382;-91
2022/01/21 06:04:09;;;;;;;;;11.25;9.25;;;;;6.06;62.84;103551.47;5060643;28;45495;-90
2022/01/21 06:06:35;;;;;;;;;10.00;5.75;;;;;6.00;63.14;103554.78;5046983;28;45401;-90
2022/01/21 06:09:03;;;;;;;;;10.50;7.75;;;;;5.97;62.67;103554.72;5060885;28;45261;-87
2022/01/21 06:11:28;;;;;;;;;11.75;8.50;;;;;5.91;62.82;103558.00;5060023;28;45298;-80
2022/01/21 06:13:54;;;;;;;;;13.25;9.75;;;;;5.89;62.36;103558.78;5057913;28;45393;-82
2022/01/21 06:16:19;;;;;;;;;17.25;10.75;;;;;5.89;62.64;103569.22;5059545;28;45390;-83
2022/01/21 06:18:46;;;;;;;;;10.25;7.00;;;;;5.83;63.07;103559.47;5060414;28;45265;-83
2022/01/21 06:21:13;;;;;;;;;10.00;9.00;;;;;5.81;62.80;103562.03;5059251;28;45398;-83
2022/01/21 06:23:38;;;;;;;;;11.50;8.75;;;;;5.82;63.00;103563.81;5059847;28;46175;-83
2022/01/21 06:26:04;;;;;;;;;9.50;9.00;;;;;5.82;63.08;103563.81;5059578;28;45449;-85
2022/01/21 06:28:29;;;;;;;;;9.25;6.75;;;;;5.81;63.16;103556.81;5058867;28;45256;-85
2022/01/21 06:30:55;;;;;;;;;9.50;8.50;;;;;5.84;63.17;103556.03;5059773;28;45543;-83
2022/01/21 06:33:21;;;;;;;;;14.00;9.00;;;;;5.87;62.92;103555.25;5059870;28;45475;-83
2022/01/21 06:35:51;;;;;;;;;15.00;9.00;;;;;5.88;62.97;103551.81;5059722;28;45474;-85
2022/01/21 06:38:18;;;;;;;;;11.50;10.00;;;;;5.94;63.03;103560.72;5058479;28;45460;-80
2022/01/21 06:40:44;;;;;;;;;13.00;9.75;;;;;5.96;62.75;103550.31;5060059;28;45610;-80
2022/01/21 06:43:09;;;;;;;;;12.75;6.50;;;;;5.93;63.08;103555.41;5058332;28;46067;-80
2022/01/21 06:45:35;;;;;;;;;3.50;3.50;;;;;5.91;62.75;103554.50;5049830;28;45346;-80
2022/01/21 06:48:02;;;;;;;;;8.75;5.75;;;;;5.88;63.30;103557.88;5058212;28;45531;-80
2022/01/21 06:50:29;;;;;;;;;11.75;6.00;;;;;5.89;63.06;103564.00;5058293;28;46108;-80
2022/01/21 06:52:54;;;;;;;;;11.75;8.50;;;;;5.89;63.05;103564.00;5059712;28;46350;-80
2022/01/21 06:55:20;;;;;;;;;9.50;8.00;;;;;5.91;63.02;103573.66;5059587;28;45215;-80
2022/01/21 06:57:45;;;;;;;;;55.00;35.50;;;;;5.92;63.10;103569.34;5059842;28;45501;-80
2022/01/21 07:00:16;;;;;;;;;74.50;54.25;;;;;5.95;62.77;103577.28;5059437;28;45386;-79
2022/01/21 07:02:42;;;;;;;;;86.25;63.50;;;;;5.97;62.68;103576.44;5059525;28;46500;-80
2022/01/21 07:05:08;;;;;;;;;109.50;88.25;;;;;6.01;62.99;103577.47;5058988;28;46091;-80
2022/01/21 07:07:33;;;;;;;;;89.50;65.00;;;;;6.03;62.76;103586.22;5059766;28;45464;-80
2022/01/21 07:10:00;;;;;;;;;55.50;40.50;;;;;6.05;62.79;103587.16;5059550;28;45306;-80
2022/01/21 07:12:26;;;;;;;;;40.75;29.50;;;;;6.05;62.41;103596.75;5057810;28;46197;-79
2022/01/21 07:14:52;;;;;;;;;11.00;9.00;;;;;6.08;62.84;103599.47;5058720;28;45272;-78
2022/01/21 07:17:17;;;;;;;;;16.00;14.50;;;;;6.07;63.02;103601.16;5053073;28;45248;-78
2022/01/21 07:19:43;;;;;;;;;18.00;16.00;;;;;6.09;62.83;103596.03;5048565;28;45542;-79
2022/01/21 07:22:08;;;;;;;;;7.00;7.00;;;;;6.12;63.12;103608.28;5048199;28;46345;-80
2022/01/21 07:24:34;;;;;;;;;11.25;9.00;;;;;6.13;62.77;103605.72;5055292;28;45606;-80
2022/01/21 07:26:59;;;;;;;;;11.25;10.25;;;;;6.15;62.70;103604.03;5056201;28;45875;-78
2022/01/21 07:29:24;;;;;;;;;18.25;14.25;;;;;6.16;62.49;103610.16;5058942;28;45510;-78
2022/01/21 07:31:54;;;;;;;;;16.50;16.00;;;;;6.24;62.83;103607.78;5050439;28;45303;-78
2022/01/21 07:34:24;;;;;;;;;27.25;20.00;;;;;6.25;63.03;103615.66;5054066;28;45523;-78
2022/01/21 07:36:51;;;;;;;;;14.25;11.00;;;;;6.23;62.61;103611.22;5058586;28;45426;-78
2022/01/21 07:39:17;;;;;;;;;12.50;9.00;;;;;6.22;62.72;103617.31;5058843;28;45259;-78
2022/01/21 07:41:42;;;;;;;;;59.00;44.25;;;;;6.23;62.92;103627.78;5058894;28;45594;-78
2022/01/21 07:44:08;;;;;;;;;65.25;48.25;;;;;6.20;62.47;103617.25;5056366;28;45370;-78
2022/01/21 07:46:33;;;;;;;;;71.00;52.00;;;;;6.21;62.47;103620.75;5050120;28;45432;-78
2022/01/21 07:48:59;;;;;;;;;80.25;56.25;;;;;6.22;62.82;103630.38;5051089;28;45515;-78
2022/01/21 07:51:26;;;;;;;;;109.00;80.25;;;;;6.22;62.83;103625.16;5047651;28;46230;-78
2022/01/21 07:53:52;;;;;;;;;84.50;63.00;;;;;6.23;62.56;103626.91;5050755;28;45299;-78
2022/01/21 07:56:17;;;;;;;;;81.50;59.75;;;;;6.23;62.82;103622.56;5047286;28;45230;-78
2022/01/21 07:58:43;;;;;;;;;88.25;69.50;;;;;6.25;62.54;103638.28;5054721;28;45498;-78
2022/01/21 08:01:09;;;;;;;;;65.75;49.75;;;;;6.27;62.59;103629.66;5043026;28;46586;-77
2022/01/21 08:03:34;;;;;;;;;33.00;24.00;;;;;6.29;62.95;103643.69;5052690;28;45401;-78
2022/01/21 08:05:59;;;;;;;;;27.50;16.00;;;;;6.33;62.89;103638.53;5056289;28;45442;-76
2022/01/21 08:08:26;;;;;;;;;16.50;12.25;;;;;6.32;62.64;103655.06;5057569;28;45413;-78
2022/01/21 08:10:52;;;;;;;;;20.75;16.50;;;;;6.28;62.76;103652.34;5058261;28;45379;-78
2022/01/21 08:13:18;;;;;;;;;59.75;43.50;;;;;6.27;62.65;103644.47;5051816;28;45419;-78
2022/01/21 08:15:43;;;;;;;;;13.50;11.00;;;;;6.33;62.56;103649.88;5058208;28;45449;-78
2022/01/21 08:18:09;;;;;;;;;16.50;12.50;;;;;6.34;62.59;103656.00;5055784;28;45527;-78
2022/01/21 08:20:35;;;;;;;;;9.75;9.75;;;;;6.34;62.65;103650.78;5060795;28;45313;-78
2022/01/21 08:23:00;;;;;;;;;14.75;10.75;;;;;6.34;62.52;103656.00;5061339;28;45300;-78
2022/01/21 08:25:26;;;;;;;;;17.00;12.50;;;;;6.35;63.06;103650.81;5061003;28;45362;-78
2022/01/21 08:27:51;;;;;;;;;19.25;13.75;;;;;6.36;62.79;103649.97;5057143;28;45299;-78
2022/01/21 08:30:17;;;;;;;;;32.75;26.75;;;;;6.39;62.60;103655.31;5060633;28;45427;-78
2022/01/21 08:32:42;;;;;;;;;25.00;20.75;;;;;6.42;62.56;103649.28;5061190;28;45405;-78
2022/01/21 08:35:09;;;;;;;;;24.25;16.00;;;;;6.47;62.66;103652.91;5060149;28;45500;-78
2022/01/21 08:37:35;;;;;;;;;26.00;20.50;;;;;6.48;62.27;103648.59;5054155;28;45437;-78
2022/01/21 08:40:01;;;;;;;;;18.50;14.50;;;;;6.49;62.77;103651.28;5060583;28;46943;-78
2022/01/21 08:42:27;;;;;;;;;11.50;9.00;;;;;6.52;62.64;103653.06;5061614;28;45377;-78
2022/01/21 08:44:52;;;;;;;;;17.75;12.25;;;;;6.56;62.59;103654.97;5061497;28;45446;-78
2022/01/21 08:47:21;;;;;;;;;11.75;8.50;;;;;6.52;62.17;103659.19;5061043;28;45466;-78
2022/01/21 08:49:48;;;;;;;;;12.00;9.50;;;;;6.55;62.44;103657.50;5058855;28;46189;-78
2022/01/21 08:52:19;;;;;;;;;14.00;13.75;;;;;6.55;62.31;103657.50;5057147;28;45298;-78
2022/01/21 08:54:48;;;;;;;;;25.50;22.00;;;;;6.51;62.37;103649.59;5046585;28;45789;-78
2022/01/21 08:57:15;;;;;;;;;68.25;49.00;;;;;6.52;62.51;103664.41;5057730;28;45418;-78
2022/01/21 08:59:40;;;;;;;;;78.00;59.75;;;;;6.55;62.11;103660.13;5060258;28;45487;-78
2022/01/21 09:02:06;;;;;;;;;87.50;61.00;;;;;6.59;62.50;103654.16;5058867;28;45452;-79
2022/01/21 09:04:32;;;;;;;;;68.75;49.25;;;;;6.59;62.05;103654.16;5060856;28;45347;-78
2022/01/21 09:06:58;;;;;;;;;59.25;44.75;;;;;6.59;62.37;103660.25;5060287;28;45607;-78
2022/01/21 09:09:24;;;;;;;;;55.25;39.50;;;;;6.57;62.46;103645.41;5053743;28;46454;-78
2022/01/21 09:11:52;;;;;;;;;33.50;28.00;;;;;6.59;62.24;103656.78;5059738;28;45849;-79
2022/01/21 09:14:18;;;;;;;;;27.75;21.50;;;;;6.63;62.59;103658.63;5059305;28;45497;-79
2022/01/21 09:16:44;;;;;;;;;23.25;17.00;;;;;6.69;62.68;103655.34;5059232;28;45415;-79
2022/01/21 09:19:09;;;;;;;;;13.75;11.00;;;;;6.74;62.74;103657.22;5060063;28;46018;-79
2022/01/21 09:21:38;;;;;;;;;10.75;10.75;;;;;6.78;62.03;103662.56;5059919;28;45352;-78
2022/01/21 09:24:05;;;;;;;;;17.25;14.00;;;;;6.81;62.12;103660.03;5059858;28;45925;-78
2022/01/21 09:26:30;;;;;;;;;23.00;17.50;;;;;6.83;62.09;103666.22;5057862;28;45445;-79
2022/01/21 09:28:58;;;;;;;;;17.75;14.50;;;;;6.80;62.28;103666.09;5053858;28;46535;-78
2022/01/21 09:31:24;;;;;;;;;23.50;20.50;;;;;6.81;62.19;103668.78;5058621;28;45312;-78
2022/01/21 09:33:49;;;;;;;;;16.25;8.50;;;;;6.83;62.11;103666.22;5059604;28;45474;-78
2022/01/21 09:36:16;;;;;;;;;23.25;23.00;;;;;6.83;62.01;103676.66;5058444;28;45452;-79
2022/01/21 09:38:42;;;;;;;;;61.75;46.75;;;;;6.80;62.18;103673.94;5057712;28;45287;-79
2022/01/21 09:41:09;;;;;;;;;55.75;40.50;;;;;6.86;62.22;103688.09;5059636;28;45512;-79
2022/01/21 09:43:37;;;;;;;;;30.50;23.75;;;;;6.88;62.29;103682.03;5059268;28;45310;-79
2022/01/21 09:46:06;;;;;;;;;26.75;19.00;;;;;6.89;62.48;103682.06;5058713;28;45465;-78
2022/01/21 09:48:36;;;;;;;;;50.25;36.25;;;;;6.95;62.17;103691.84;5059136;28;45425;-78
2022/01/21 09:51:03;;;;;;;;;75.50;52.50;;;;;7.00;62.22;103694.59;5058971;28;45333;-79
2022/01/21 09:53:33;;;;;;;;;45.50;34.50;;;;;7.04;61.97;103701.66;5059242;28;45358;-79
2022/01/21 09:56:00;;;;;;;;;54.25;40.00;;;;;7.09;62.46;103718.41;5059149;28;45632;-80
2022/01/21 09:58:28;;;;;;;;;36.00;29.50;;;;;7.10;62.09;103722.78;5059277;28;45472;-79
2022/01/21 10:00:55;;;;;;;;;19.75;17.00;;;;;7.10;62.27;103717.56;5057781;28;45300;-79
2022/01/21 10:03:22;;;;;;;;;49.75;38.75;;;;;7.13;62.07;103712.44;5055316;28;46607;-79
2022/01/21 10:05:49;;;;;;;;;63.50;47.75;;;;;7.14;61.56;103715.91;5057920;28;45508;-79
2022/01/21 10:08:15;;;;;;;;;54.75;39.75;;;;;7.13;61.71;103707.19;5054459;28;46540;-79
2022/01/21 10:10:42;;;;;;;;;44.00;34.75;;;;;7.16;61.73;103727.34;5057880;28;45785;-79
2022/01/21 10:13:08;;;;;;;;;75.75;52.25;;;;;7.18;61.21;103718.69;5059179;28;45359;-79
2022/01/21 10:15:36;;;;;;;;;45.25;33.50;;;;;7.19;61.44;103717.84;5058619;28;45430;-79
2022/01/21 10:18:06;;;;;;;;;47.50;35.00;;;;;7.23;61.84;103708.34;5055457;28;48793;-79
2022/01/21 10:20:32;;;;;;;;;52.75;40.50;;;;;7.27;61.76;103706.69;5070670;28;46881;-79
2022/01/21 10:23:01;;;;;;;;;40.25;30.00;;;;;7.34;61.39;103711.28;5058312;28;45307;-79
2022/01/21 10:25:27;;;;;;;;;27.25;21.50;;;;;7.36;61.56;103719.19;5059536;28;45398;-79
2022/01/21 10:28:06;;;;;;;;;21.00;11.25;;;;;7.40;60.98;103718.41;5059111;28;46501;-79
2022/01/21 10:30:32;;;;;;;;;15.50;11.25;;;;;7.39;60.93;103714.91;5059752;28;45371;-79
2022/01/21 10:32:57;;;;;;;;;10.25;8.75;;;;;7.39;60.92;103717.53;5056211;28;45377;-80
2022/01/21 10:35:26;;;;;;;;;15.75;12.75;;;;;7.42;60.73;103725.47;5068500;27;45553;-79
2022/01/21 10:37:56;;;;;;;;;11.25;9.50;;;;;7.41;60.99;103715.84;5062787;28;46147;-79
2022/01/21 10:40:22;;;;;;;;;18.00;16.00;;;;;7.46;60.92;103707.25;5058021;28;45248;-79
2022/01/21 10:42:48;;;;;;;;;29.75;22.50;;;;;7.48;60.91;103709.03;5068809;28;45413;-79
2022/01/21 10:45:14;;;;;;;;;34.25;27.75;;;;;7.50;61.31;103712.63;5060389;27;45569;-79
2022/01/21 10:47:47;;;;;;;;;44.25;33.50;;;;;7.57;61.40;103715.38;5062379;28;45536;-79
2022/01/21 10:50:14;;;;;;;;;68.00;50.50;;;;;7.63;60.37;103713.81;5061351;28;46141;-79
2022/01/21 10:52:45;;;;;;;;;63.75;46.00;;;;;7.61;59.95;103707.66;5058044;28;45432;-79
2022/01/21 10:55:28;;;;;;;;;66.00;49.25;;;;;7.67;60.28;103719.16;5057699;28;46160;-79
2022/01/21 10:58:24;;;;;;;;;66.00;48.25;;;;;7.67;60.32;103711.28;5069015;28;46178;-79
2022/01/21 11:01:03;;;;;;;;;59.50;41.00;;;;;7.64;60.38;103705.13;5048886;28;45692;-79
2022/01/21 11:03:29;;;;;;;;;51.75;38.25;;;;;7.66;59.87;103694.69;5066383;28;45416;-79
2022/01/21 11:06:19;;;;;;;;;40.50;34.25;;;;;7.67;59.85;103698.19;5062624;28;45479;-79
2022/01/21 11:08:44;;;;;;;;;33.00;23.75;;;;;7.62;60.70;103701.59;5060573;27;46544;-79
2022/01/21 11:11:10;;;;;;;;;32.50;26.00;;;;;7.66;60.33;103699.94;5071155;27;45298;-79
2022/01/21 11:13:37;;;;;;;;;18.75;16.00;;;;;7.70;60.24;103699.19;5057645;28;45414;-79
2022/01/21 11:16:09;;;;;;;;;22.75;17.75;;;;;7.71;60.43;103700.03;5062000;28;45473;-79
2022/01/21 11:18:50;;;;;;;;;17.00;14.50;;;;;7.69;60.14;103701.75;5058555;28;46610;-79
2022/01/21 11:21:16;;;;;;;;;22.75;18.25;;;;;7.71;59.34;103700.03;5062465;28;45405;-79
2022/01/21 11:23:42;;;;;;;;;17.50;14.00;;;;;7.76;59.66;103708.91;5061164;28;45784;-79
2022/01/21 11:26:12;;;;;;;;;13.00;11.25;;;;;7.78;60.22;103706.38;5058463;28;45400;-79
2022/01/21 11:28:55;;;;;;;;;11.25;10.00;;;;;7.82;60.14;103708.22;5057374;28;46661;-79
2022/01/21 11:31:23;;;;;;;;;12.75;10.00;;;;;7.78;59.30;103690.66;5063512;28;45299;-78
2022/01/21 11:33:49;;;;;;;;;23.25;18.75;;;;;7.75;59.93;103694.94;5059806;28;45342;-78
2022/01/21 11:36:15;;;;;;;;;21.00;18.00;;;;;7.79;60.14;103695.91;5070462;28;45822;-78
2022/01/21 11:38:44;;;;;;;;;28.75;23.75;;;;;7.86;59.84;103695.22;5067509;27;46385;-78
2022/01/21 11:41:12;;;;;;;;;28.50;24.25;;;;;7.85;60.50;103688.22;5062059;27;45294;-79
2022/01/21 11:43:38;;;;;;;;;32.00;25.25;;;;;7.92;59.95;103688.38;5057489;28;45282;-79
2022/01/21 11:48:52;;;;;;;;;20.25;11.75;;;;;7.99;60.02;103690.31;5070007;28;45507;-79
2022/01/21 11:51:18;;;;;;;;;22.75;15.50;;;;;7.99;59.86;103685.06;5054045;28;45739;-78
2022/01/21 11:53:48;;;;;;;;;25.50;24.50;;;;;8.00;59.52;103678.97;5061585;28;45444;-78
2022/01/21 11:56:46;;;;;;;;;17.75;17.50;;;;;8.07;59.25;103680.03;5066086;28;45618;-79
2022/01/21 11:59:36;;;;;;;;;26.25;18.50;;;;;8.09;59.72;103679.22;5060359;28;46373;-78
2022/01/21 12:02:21;;;;;;;;;24.25;18.50;;;;;8.11;59.75;103674.00;5060873;28;45708;-78
2022/01/21 12:04:55;;;;;;;;;24.50;18.50;;;;;8.16;59.76;103682.88;5059787;28;45453;-78
2022/01/21 12:07:36;;;;;;;;;17.25;13.50;;;;;8.19;59.11;103682.06;5053926;28;45509;-79
2022/01/21 12:10:20;;;;;;;;;24.75;22.00;;;;;8.20;59.34;103678.59;5048346;28;46914;-79
2022/01/21 12:15:22;;;;;;;;;40.50;32.75;;;;;8.21;59.28;103673.41;5063189;28;45389;-79